Time;durP1;ratioP1;P1;durP2;ratioP2;P2;SDS_P1;SDS_P2;PMS_P1;PMS_P2;Temp;Humidity;BMP_temperature;BMP_pressure;BME280_temperature;BME280_humidity;BME280_pressure;Samples;Min_cycle;Max_cycle;Signal;HPM_P1;HPM_P2
2024/01/19 00:03:42;;;;;;;34.93;25.17;;;-0.30;99.90;;;0.38;100.00;97501.78;10472335;28;20908;-64
2024/01/19 00:08:46;;;;;;;36.97;25.67;;;-0.30;99.90;;;0.38;100.00;97519.38;10422392;28;20224;-64
2024/01/19 00:13:50;;;;;;;36.77;25.73;;;-0.30;99.90;;;0.39;100.00;97528.69;10444039;28;20229;-65
2024/01/19 00:18:53;;;;;;;34.27;25.30;;;-0.30;99.90;;;0.33;100.00;97523.97;10458285;28;20230;-65
2024/01/19 00:23:56;;;;;;;36.80;26.43;;;-0.30;99.90;;;0.31;100.00;97524.59;10418979;28;20848;-65
2024/01/19 00:29:01;;;;;;;35.00;25.40;;;-0.30;99.90;;;0.36;100.00;97531.78;10439087;28;20228;-65
2024/01/19 00:34:04;;;;;;;37.63;25.73;;;-0.30;99.90;;;0.33;100.00;97539.06;10452931;28;20811;-65
2024/01/19 00:39:08;;;;;;;37.17;25.73;;;-0.30;99.90;;;0.32;100.00;97542.34;10476046;28;20308;-65
2024/01/19 00:44:12;;;;;;;39.63;26.97;;;-0.30;99.90;;;0.36;100.00;97543.50;10472771;28;20632;-66
2024/01/19 00:49:16;;;;;;;35.73;25.77;;;-0.30;99.90;;;0.29;100.00;97552.09;10454955;28;20261;-66
2024/01/19 00:54:19;;;;;;;38.63;27.67;;;-0.40;99.90;;;0.22;100.00;97559.81;10463593;28;20317;-66
2024/01/19 00:59:23;;;;;;;38.70;27.50;;;-0.40;99.90;;;0.25;100.00;97565.13;10460796;28;20220;-65
2024/01/19 01:04:27;;;;;;;37.33;26.87;;;-0.30;99.90;;;0.28;100.00;97575.44;10468759;28;20251;-65
2024/01/19 01:09:30;;;;;;;40.93;27.30;;;-0.40;99.90;;;0.31;100.00;97580.75;10454731;28;20237;-65
2024/01/19 01:14:34;;;;;;;36.97;27.60;;;-0.40;99.90;;;0.24;100.00;97583.47;10448235;28;20227;-65
2024/01/19 01:19:37;;;;;;;42.73;27.07;;;-0.40;99.90;;;0.27;100.00;97595.44;10452922;28;20658;-65
2024/01/19 01:24:41;;;;;;;40.27;28.23;;;-0.40;99.90;;;0.26;100.00;97602.09;10457069;28;20366;-65
2024/01/19 01:29:46;;;;;;;40.67;27.67;;;-0.40;99.90;;;0.30;100.00;97609.16;10448749;28;20230;-66
2024/01/19 01:34:49;;;;;;;42.37;28.17;;;-0.40;99.90;;;0.28;100.00;97620.69;10454481;28;20235;-66
2024/01/19 01:39:52;;;;;;;39.20;26.77;;;-0.40;99.90;;;0.40;100.00;97626.88;10460236;28;20241;-66
2024/01/19 01:44:58;;;;;;;40.97;27.70;;;-0.40;99.90;;;0.33;100.00;97639.59;10458262;28;20227;-66
2024/01/19 01:50:02;;;;;;;42.37;28.60;;;-0.40;99.90;;;0.19;100.00;97652.50;10439440;28;20320;-66
2024/01/19 01:55:05;;;;;;;46.13;28.83;;;-0.40;99.90;;;0.09;100.00;97650.78;10461328;28;20231;-66
2024/01/19 02:00:14;;;;;;;47.10;29.73;;;-0.50;99.90;;;0.10;100.00;97650.03;10463326;28;20224;-66
2024/01/19 02:05:17;;;;;;;44.97;30.77;;;-0.50;99.90;;;0.31;100.00;97660.31;10474365;28;20780;-66
2024/01/19 02:10:21;;;;;;;44.20;31.87;;;-0.40;99.90;;;0.15;100.00;97668.06;10442073;28;20236;-66
2024/01/19 02:15:26;;;;;;;48.23;30.50;;;-0.50;99.90;;;0.20;100.00;97672.78;10443185;28;21634;-66
2024/01/19 02:20:29;;;;;;;43.33;29.37;;;-0.40;99.90;;;0.30;100.00;97669.47;10468484;28;20231;-65
2024/01/19 02:25:34;;;;;;;48.97;31.00;;;-0.40;99.90;;;0.11;100.00;97676.03;10472200;28;20224;-66
2024/01/19 02:30:37;;;;;;;48.77;31.63;;;-0.50;99.90;;;0.08;100.00;97680.78;10472908;28;20225;-65
2024/01/19 02:35:41;;;;;;;48.53;30.87;;;-0.50;99.90;;;0.08;100.00;97680.78;10444170;28;20230;-66
2024/01/19 02:40:45;;;;;;;44.80;30.13;;;-0.50;99.90;;;0.08;100.00;97688.31;10447223;28;20263;-65
2024/01/19 02:45:48;;;;;;;52.67;31.73;;;-0.50;99.90;;;0.24;100.00;97689.00;10435349;28;20232;-66
2024/01/19 02:50:52;;;;;;;48.33;31.13;;;-0.50;99.90;;;0.08;100.00;97690.81;10449380;28;20733;-66
2024/01/19 02:55:56;;;;;;;46.33;31.40;;;-0.50;99.90;;;0.16;100.00;97693.31;10427127;28;20233;-66
2024/01/19 03:01:01;;;;;;;47.93;31.53;;;-0.50;99.90;;;0.16;100.00;97708.38;10451390;28;20237;-66
2024/01/19 03:06:05;;;;;;;47.03;31.30;;;-0.40;99.90;;;0.12;100.00;97713.88;10461419;28;20221;-66
2024/01/19 03:11:10;;;;;;;47.60;31.53;;;-0.50;99.90;;;0.02;100.00;97721.28;10436078;28;20714;-66
2024/01/19 03:16:13;;;;;;;44.47;29.93;;;-0.50;99.90;;;0.06;100.00;97714.91;10457194;28;20620;-66
2024/01/19 03:21:17;;;;;;;50.97;34.47;;;-0.50;99.90;;;0.03;100.00;97722.16;10437436;28;20259;-66
2024/01/19 03:26:21;;;;;;;50.60;32.87;;;-0.50;99.90;;;0.03;100.00;97727.19;10413802;28;20231;-67
2024/01/19 03:31:25;;;;;;;50.10;31.93;;;-0.60;99.90;;;0.15;100.00;97733.38;10421256;28;20328;-66
2024/01/19 03:36:28;;;;;;;48.90;31.80;;;-0.50;99.90;;;0.02;100.00;97736.34;10441773;28;20247;-67
2024/01/19 03:41:33;;;;;;;48.83;31.80;;;-0.50;99.90;;;-0.06;100.00;97745.69;10461806;28;20276;-67
2024/01/19 03:46:36;;;;;;;51.43;32.27;;;-0.60;99.90;;;-0.13;100.00;97750.84;10463497;28;20330;-67
2024/01/19 03:51:57;;;;;;;51.23;33.80;;;-0.70;99.90;;;0.06;100.00;97752.59;10426032;28;20235;-67
2024/01/19 03:57:05;;;;;;;47.23;31.67;;;-0.60;99.90;;;0.08;100.00;97751.13;10443586;28;20231;-67
2024/01/19 04:02:08;;;;;;;44.73;32.17;;;-0.60;99.90;;;-0.07;100.00;97751.44;10457808;28;20225;-67
2024/01/19 04:07:12;;;;;;;47.93;31.87;;;-0.60;99.90;;;-0.08;100.00;97759.72;10460175;28;20224;-67
2024/01/19 04:12:18;;;;;;;44.87;30.73;;;-0.70;99.90;;;-0.28;100.00;97765.34;10442549;28;20243;-67
2024/01/19 04:17:21;;;;;;;47.43;30.07;;;-0.80;99.90;;;-0.27;100.00;97768.72;10450380;28;20237;-66
2024/01/19 04:22:26;;;;;;;44.13;31.33;;;-0.90;99.90;;;-0.18;100.00;97777.16;10467411;28;20232;-66
2024/01/19 04:27:30;;;;;;;50.80;31.77;;;-0.80;99.90;;;0.01;100.00;97776.41;10452965;28;20753;-66
2024/01/19 04:32:33;;;;;;;50.37;33.27;;;-0.70;99.90;;;-0.08;100.00;97782.31;10471109;28;20606;-66
2024/01/19 04:37:36;;;;;;;49.13;32.63;;;-0.70;99.90;;;-0.03;100.00;97781.16;10477362;28;20234;-66
2024/01/19 04:42:41;;;;;;;50.40;33.50;;;-0.60;99.90;;;-0.17;100.00;97788.97;10434290;28;20235;-66
2024/01/19 04:47:44;;;;;;;52.73;33.53;;;-0.70;99.90;;;0.04;100.00;97791.78;10451345;28;20220;-66
2024/01/19 04:52:47;;;;;;;52.23;35.30;;;-0.70;99.90;;;-0.11;100.00;97794.59;10443391;28;20235;-66
2024/01/19 04:57:52;;;;;;;50.93;34.20;;;-0.70;99.90;;;-0.18;100.00;97791.34;10464920;28;20248;-66
2024/01/19 05:02:55;;;;;;;51.03;34.33;;;-0.70;99.90;;;-0.27;100.00;97796.34;10452971;28;20238;-67
2024/01/19 05:08:00;;;;;;;50.63;34.47;;;-0.80;99.90;;;-0.29;100.00;97798.69;10450023;28;20238;-66
2024/01/19 05:13:05;;;;;;;50.60;33.37;;;-0.90;99.90;;;-0.32;100.00;97820.13;10452680;28;20686;-66
2024/01/19 05:18:08;;;;;;;53.03;35.07;;;-0.90;99.90;;;-0.33;100.00;97830.91;10463469;28;20778;-66
2024/01/19 05:23:11;;;;;;;54.90;37.03;;;-0.90;99.90;;;-0.35;100.00;97838.28;10448891;28;20238;-66
2024/01/19 05:28:16;;;;;;;56.53;36.37;;;-0.90;99.90;;;-0.37;100.00;97842.28;10465016;28;20609;-66
2024/01/19 05:33:19;;;;;;;52.73;37.60;;;-1.00;99.90;;;-0.39;100.00;97848.78;10460243;28;20793;-66
2024/01/19 05:38:23;;;;;;;52.37;35.97;;;-1.00;99.90;;;-0.44;100.00;97859.09;10455754;28;20246;-66
2024/01/19 05:43:27;;;;;;;56.07;37.97;;;-1.10;99.90;;;-0.52;100.00;97869.25;10460858;28;20221;-66
2024/01/19 05:48:30;;;;;;;54.20;37.57;;;-1.10;99.90;;;-0.58;100.00;97876.16;10434830;28;20223;-66
2024/01/19 05:53:34;;;;;;;62.20;40.33;;;-1.20;99.90;;;-0.70;100.00;97878.34;10456835;28;20300;-67
2024/01/19 05:58:38;;;;;;;57.03;38.20;;;-1.30;99.90;;;-0.71;100.00;97885.75;10437536;28;20227;-66
2024/01/19 06:03:41;;;;;;;59.37;38.10;;;-1.30;99.90;;;-0.85;100.00;97896.91;10464705;28;20624;-67
2024/01/19 06:08:45;;;;;;;58.43;37.93;;;-1.50;99.90;;;-0.93;100.00;97908.66;10429803;28;20309;-67
2024/01/19 06:13:50;;;;;;;64.63;39.80;;;-1.50;99.90;;;-0.92;100.00;97924.59;10452210;28;20235;-67
2024/01/19 06:18:53;;;;;;;58.87;36.47;;;-1.50;99.90;;;-0.95;100.00;97927.66;10450849;28;20228;-67
2024/01/19 06:23:56;;;;;;;46.53;31.80;;;-1.50;99.90;;;-1.01;100.00;97939.59;10448795;28;20389;-65
2024/01/19 06:29:01;;;;;;;56.27;35.33;;;-1.60;99.90;;;-0.95;100.00;97942.72;10440049;28;20852;-66
2024/01/19 06:34:04;;;;;;;59.40;37.00;;;-1.50;99.90;;;-0.83;100.00;97954.72;10457053;28;20528;-66
2024/01/19 06:39:07;;;;;;;59.83;36.73;;;-1.40;99.90;;;-0.86;100.00;97969.47;10454661;28;20234;-66
2024/01/19 06:44:13;;;;;;;54.07;35.80;;;-1.40;99.90;;;-0.81;100.00;97975.84;10462644;28;20227;-67
2024/01/19 06:49:16;;;;;;;52.83;34.23;;;-1.40;99.90;;;-0.76;100.00;97984.75;10460397;28;20221;-67
2024/01/19 06:54:20;;;;;;;49.13;34.07;;;-1.30;99.90;;;-0.70;100.00;97992.91;10462507;28;20834;-66
2024/01/19 06:59:25;;;;;;;51.97;33.07;;;-1.30;99.90;;;-0.69;100.00;98007.22;10451455;28;20636;-67
2024/01/19 07:04:28;;;;;;;47.77;32.73;;;-1.20;99.90;;;-0.51;100.00;98011.59;10432426;28;20250;-66
2024/01/19 07:09:31;;;;;;;50.67;31.97;;;-1.10;99.90;;;-0.42;100.00;98026.72;10454717;28;20284;-67
2024/01/19 07:14:35;;;;;;;49.40;32.73;;;-1.10;99.90;;;-0.33;100.00;98036.81;10462748;28;20303;-66
2024/01/19 07:19:38;;;;;;;51.07;33.43;;;-1.10;99.90;;;-0.50;100.00;98042.63;10456923;28;20252;-66
2024/01/19 07:24:42;;;;;;;53.63;34.97;;;-1.10;99.90;;;-0.52;100.00;98044.94;10473474;28;20219;-67
2024/01/19 07:29:46;;;;;;;48.77;32.90;;;-1.10;99.90;;;-0.63;100.00;98060.56;10433957;28;20664;-66
2024/01/19 07:34:49;;;;;;;46.40;31.63;;;-1.20;99.90;;;-0.52;100.00;98075.06;10439815;28;20277;-66
2024/01/19 07:39:53;;;;;;;50.07;31.77;;;-1.00;99.90;;;-0.47;100.00;98071.41;10477183;28;20231;-67
2024/01/19 07:44:57;;;;;;;44.60;29.60;;;-1.00;99.90;;;-0.37;100.00;98075.78;10439796;28;20256;-66
2024/01/19 07:50:00;;;;;;;48.53;31.13;;;-0.90;99.90;;;-0.25;100.00;98081.16;10445544;28;20252;-66
2024/01/19 07:55:04;;;;;;;42.20;28.20;;;-0.80;99.90;;;-0.35;100.00;98108.56;10454265;28;20220;-65
2024/01/19 08:00:10;;;;;;;39.03;27.47;;;-0.90;99.90;;;-0.32;100.00;98103.84;10450809;28;20229;-66
2024/01/19 08:05:14;;;;;;;42.07;26.90;;;-0.80;99.90;;;-0.27;100.00;98123.69;10478922;28;20721;-66
2024/01/19 08:10:18;;;;;;;37.73;25.43;;;-0.80;99.90;;;-0.21;100.00;98138.47;10475995;28;20228;-65
2024/01/19 08:15:23;;;;;;;33.87;25.07;;;-0.70;99.90;;;-0.13;100.00;98149.31;10461246;28;20228;-65
2024/01/19 08:20:26;;;;;;;36.63;25.40;;;-0.70;99.90;;;0.08;100.00;98158.16;10449749;28;20220;-66
2024/01/19 08:25:29;;;;;;;34.33;25.20;;;-0.60;99.90;;;0.04;100.00;98156.06;10447300;28;20710;-66
2024/01/19 08:30:34;;;;;;;39.23;25.00;;;-0.60;99.90;;;0.26;100.00;98162.56;10453483;28;20241;-65
2024/01/19 08:35:37;;;;;;;35.13;24.50;;;-0.50;99.90;;;0.22;100.00;98178.03;10459592;28;20232;-66
2024/01/19 08:40:41;;;;;;;34.90;24.77;;;-0.40;99.90;;;0.24;100.00;98171.53;10452786;28;20229;-65
2024/01/19 08:45:45;;;;;;;33.23;25.33;;;-0.40;99.90;;;0.31;100.00;98178.97;10477859;28;20232;-67
2024/01/19 08:50:48;;;;;;;29.20;22.00;;;-0.30;99.90;;;0.06;100.00;98185.66;10452739;28;20676;-65
2024/01/19 08:55:52;;;;;;;32.17;22.60;;;-0.40;99.90;;;0.12;100.00;98180.38;10436448;28;22742;-66
2024/01/19 09:00:57;;;;;;;30.70;22.10;;;-0.40;99.90;;;0.22;100.00;98199.03;10441300;28;20340;-65
2024/01/19 09:06:00;;;;;;;33.03;23.50;;;-0.30;99.90;;;0.40;100.00;98195.00;10462420;28;20279;-66
2024/01/19 09:11:04;;;;;;;29.70;22.53;;;-0.20;99.90;;;0.37;100.00;98207.25;10434016;28;20240;-67
2024/01/19 09:16:09;;;;;;;32.83;23.60;;;-0.20;99.90;;;0.48;100.00;98207.44;10462811;28;20249;-68
2024/01/19 09:21:17;;;;;;;31.27;23.73;;;0.00;99.90;;;0.66;100.00;98211.81;10447798;28;20247;-65
2024/01/19 09:26:22;;;;;;;31.30;23.73;;;0.10;99.90;;;0.80;100.00;98234.22;10448357;28;20582;-66
2024/01/19 09:31:26;;;;;;;35.27;23.80;;;0.10;99.90;;;0.77;100.00;98238.03;10449864;28;20227;-67
2024/01/19 09:36:29;;;;;;;31.73;23.13;;;0.20;99.90;;;0.79;100.00;98256.69;10454565;28;20256;-66
2024/01/19 09:41:38;;;;;;;29.33;23.93;;;0.20;99.90;;;0.81;100.00;98271.22;10456938;28;20227;-65
2024/01/19 09:47:06;;;;;;;29.30;22.37;;;0.30;99.90;;;0.85;100.00;98282.47;10455065;28;20224;-66
2024/01/19 09:52:24;;;;;;;24.93;20.73;;;0.30;99.90;;;0.78;100.00;98288.50;10465027;28;20234;-66
2024/01/19 09:57:31;;;;;;;22.00;18.47;;;0.30;99.90;;;0.80;100.00;98293.69;10419858;28;20232;-66
2024/01/19 10:02:35;;;;;;;22.20;18.30;;;0.20;99.90;;;0.96;100.00;98306.19;10428076;28;20254;-67
2024/01/19 10:07:41;;;;;;;23.93;19.60;;;0.30;99.90;;;0.83;100.00;98315.03;10442869;28;20215;-67
2024/01/19 10:12:44;;;;;;;21.33;17.53;;;0.30;99.90;;;0.67;98.51;98317.59;10461795;28;20231;-67
2024/01/19 10:17:49;;;;;;;21.47;17.27;;;0.20;99.90;;;0.75;100.00;98323.41;10447142;28;20231;-67
2024/01/19 10:22:53;;;;;;;21.13;17.60;;;0.20;99.90;;;0.78;100.00;98336.31;10436520;28;20262;-66
2024/01/19 10:27:56;;;;;;;18.70;16.47;;;0.20;99.90;;;0.84;100.00;98333.53;10453560;28;20220;-66
2024/01/19 10:33:07;;;;;;;18.37;16.37;;;0.20;99.90;;;0.72;100.00;98335.69;10455432;28;20221;-65
2024/01/19 10:38:11;;;;;;;22.03;18.97;;;0.30;99.90;;;0.95;100.00;98347.19;10454610;28;20310;-66
2024/01/19 10:43:23;;;;;;;23.40;19.93;;;0.40;99.90;;;1.22;100.00;98346.56;10450954;28;20318;-66
2024/01/19 10:48:28;;;;;;;54.77;38.23;;;0.60;99.90;;;1.35;100.00;98359.66;10435115;28;20228;-66
2024/01/19 10:53:32;;;;;;;28.77;20.87;;;0.70;99.90;;;1.21;100.00;98364.94;10443280;28;20232;-66
2024/01/19 10:58:36;;;;;;;25.40;20.03;;;0.50;99.90;;;1.30;100.00;98366.75;10430928;28;20308;-65
2024/01/19 11:03:41;;;;;;;20.63;17.47;;;0.60;99.90;;;1.27;100.00;98368.94;10453598;28;20311;-66
2024/01/19 11:08:44;;;;;;;17.37;15.50;;;0.50;99.90;;;1.11;99.74;98360.56;10437804;28;20225;-66
2024/01/19 11:13:52;;;;;;;17.13;14.20;;;0.50;99.90;;;1.04;98.23;98363.22;10438527;28;20604;-65
2024/01/19 11:18:56;;;;;;;22.77;18.87;;;0.40;99.90;;;1.11;100.00;98363.09;10454339;28;20232;-65
2024/01/19 11:23:59;;;;;;;19.13;16.57;;;0.50;99.90;;;1.20;100.00;98364.00;10447495;28;20224;-65
2024/01/19 11:29:17;;;;;;;17.47;15.50;;;0.50;99.90;;;1.26;100.00;98364.66;10432887;28;21472;-65
2024/01/19 11:34:48;;;;;;;16.67;14.73;;;0.50;99.90;;;1.49;99.74;98373.63;10437325;28;20228;-66
2024/01/19 11:39:51;;;;;;;17.90;16.00;;;0.70;99.90;;;1.27;98.08;98371.47;10455448;28;20267;-66
2024/01/19 11:44:54;;;;;;;19.77;17.07;;;0.70;99.90;;;1.28;100.00;98378.28;10446147;28;20254;-65
2024/01/19 11:49:59;;;;;;;20.77;18.43;;;0.60;99.90;;;1.43;100.00;98373.00;10453250;28;20224;-65
2024/01/19 11:55:35;;;;;;;22.40;17.00;;;0.60;99.90;;;1.53;100.00;98373.19;10462201;28;20319;-65
2024/01/19 12:00:39;;;;;;;23.13;17.83;;;0.60;99.90;;;1.52;98.94;98368.91;10450639;28;20335;-65
2024/01/19 12:05:45;;;;;;;19.50;16.37;;;0.80;99.90;;;1.69;100.00;98366.44;10460650;28;20230;-65
2024/01/19 12:10:49;;;;;;;18.80;15.40;;;1.00;99.90;;;1.70;100.00;98367.31;10437643;28;20232;-65
2024/01/19 12:15:52;;;;;;;15.17;13.60;;;1.00;99.90;;;1.48;96.05;98370.19;10451069;28;20228;-65
2024/01/19 12:20:58;;;;;;;18.43;15.70;;;0.90;99.90;;;1.41;98.24;98367.81;10438685;28;20743;-65
2024/01/19 12:26:04;;;;;;;19.23;16.87;;;0.90;99.90;;;1.48;99.66;98369.31;10440597;28;20637;-65
2024/01/19 12:31:23;;;;;;;18.27;15.30;;;1.00;99.90;;;1.50;96.40;98370.38;10422250;28;20225;-65
2024/01/19 12:36:27;;;;;;;17.53;14.87;;;1.00;99.90;;;1.26;96.71;98371.28;10428314;28;20224;-65
2024/01/19 12:41:31;;;;;;;20.20;16.33;;;0.80;99.90;;;1.03;96.65;98374.00;10420446;28;20239;-65
2024/01/19 12:46:34;;;;;;;20.73;16.40;;;0.60;99.90;;;1.15;99.92;98395.41;10427271;28;20326;-65
2024/01/19 12:51:41;;;;;;;18.73;16.17;;;0.70;99.90;;;1.39;100.00;98391.06;10447215;28;20715;-65
2024/01/19 12:56:48;;;;;;;21.37;16.90;;;0.80;99.90;;;1.48;100.00;98397.91;10429004;28;20226;-65
2024/01/19 13:01:51;;;;;;;22.90;18.30;;;0.80;99.90;;;1.55;100.00;98400.31;10426425;28;20244;-65
2024/01/19 13:06:56;;;;;;;20.20;16.53;;;0.90;99.90;;;1.61;99.73;98394.13;10425119;28;20232;-65
2024/01/19 13:12:09;;;;;;;18.73;16.00;;;0.90;99.90;;;1.55;100.00;98400.31;10455920;28;20720;-65
2024/01/19 13:17:24;;;;;;;20.27;16.80;;;0.80;99.90;;;1.45;100.00;98405.16;10461684;28;20251;-64
2024/01/19 13:22:29;;;;;;;22.07;16.37;;;0.80;99.90;;;1.37;100.00;98397.56;10439838;28;20239;-65
2024/01/19 13:27:35;;;;;;;20.23;17.00;;;0.80;99.90;;;1.48;100.00;98405.47;10449882;28;20704;-64
2024/01/19 13:32:38;;;;;;;18.50;16.33;;;0.90;99.90;;;1.34;98.03;98399.06;10452489;28;20239;-64
2024/01/19 13:37:43;;;;;;;19.77;15.80;;;0.80;99.90;;;1.31;99.09;98403.75;10449830;28;20317;-64
2024/01/19 13:42:47;;;;;;;22.83;15.70;;;0.80;99.90;;;1.21;98.17;98411.13;10438659;28;20297;-64
2024/01/19 13:47:50;;;;;;;17.47;15.47;;;0.70;99.90;;;1.11;98.05;98401.75;10420471;28;22171;-64
2024/01/19 13:52:54;;;;;;;16.40;14.70;;;0.60;99.90;;;1.00;98.76;98416.47;10444550;28;20225;-64
2024/01/19 13:57:58;;;;;;;22.43;16.60;;;0.40;99.90;;;0.83;98.88;98424.81;10444834;28;20235;-64
2024/01/19 14:03:01;;;;;;;23.20;18.20;;;0.40;99.90;;;0.94;100.00;98424.28;10466775;28;20584;-65
2024/01/19 14:08:07;;;;;;;18.47;15.83;;;0.50;99.90;;;1.03;100.00;98429.38;10453690;28;20551;-66
2024/01/19 14:13:10;;;;;;;16.97;14.43;;;0.60;99.90;;;0.98;96.82;98441.50;10435062;28;20240;-65
2024/01/19 14:18:13;;;;;;;16.40;14.07;;;0.50;99.90;;;1.04;98.77;98432.06;10431401;28;20660;-64
2024/01/19 14:23:17;;;;;;;17.70;15.40;;;0.60;99.90;;;0.99;99.76;98447.44;10443492;28;20305;-65
2024/01/19 14:28:21;;;;;;;17.90;14.80;;;0.40;99.90;;;0.86;100.00;98445.28;10449952;28;20259;-65
2024/01/19 14:33:24;;;;;;;22.20;16.17;;;0.30;99.90;;;0.83;100.00;98465.97;10461175;28;20240;-64
2024/01/19 14:38:29;;;;;;;17.87;15.17;;;0.30;99.90;;;0.85;100.00;98464.50;10453678;28;20299;-64
2024/01/19 14:43:32;;;;;;;20.07;16.57;;;0.30;99.90;;;0.89;100.00;98476.69;10488346;28;20231;-64
2024/01/19 14:48:37;;;;;;;21.67;17.07;;;0.40;99.90;;;0.88;100.00;98474.00;10493099;28;20227;-64
2024/01/19 14:53:44;;;;;;;19.83;16.50;;;0.30;99.90;;;0.79;100.00;98476.44;10461676;28;20329;-65
2024/01/19 14:58:48;;;;;;;24.27;19.03;;;0.30;99.90;;;0.85;100.00;98491.28;10452468;28;20699;-65
2024/01/19 15:03:52;;;;;;;25.30;19.03;;;0.30;99.90;;;0.83;99.18;98491.13;10477438;28;20243;-64
2024/01/19 15:08:56;;;;;;;20.93;17.50;;;0.40;99.90;;;0.74;97.87;98487.63;10458757;28;20266;-64
2024/01/19 15:14:00;;;;;;;22.83;17.87;;;0.30;99.90;;;0.88;100.00;98494.13;10491284;28;20725;-64
2024/01/19 15:19:03;;;;;;;23.67;18.20;;;0.40;99.90;;;0.87;100.00;98485.69;10499452;28;20245;-64
2024/01/19 15:24:08;;;;;;;21.73;17.90;;;0.30;99.90;;;0.71;100.00;98493.97;10491059;28;20242;-65
2024/01/19 15:29:13;;;;;;;32.13;24.80;;;0.10;99.90;;;0.62;100.00;98488.88;10469957;28;20312;-66
2024/01/19 15:34:16;;;;;;;24.27;19.60;;;0.10;99.90;;;0.54;100.00;98508.19;10445421;28;20760;-66
2024/01/19 15:39:21;;;;;;;27.00;19.60;;;0.00;99.90;;;0.42;100.00;98507.78;10442969;28;20221;-65
2024/01/19 15:44:24;;;;;;;24.97;19.00;;;-0.10;99.90;;;0.37;100.00;98526.53;10470250;28;20257;-66
2024/01/19 15:49:27;;;;;;;23.47;19.87;;;-0.20;99.90;;;0.22;100.00;98539.97;10452667;28;20683;-66
2024/01/19 15:54:33;;;;;;;24.37;19.57;;;-0.30;99.90;;;0.24;100.00;98548.56;10453740;28;20225;-66
2024/01/19 15:59:36;;;;;;;22.90;18.07;;;-0.30;99.90;;;0.20;100.00;98557.41;10429228;28;20226;-66
2024/01/19 16:04:40;;;;;;;26.97;20.43;;;-0.30;99.90;;;0.17;100.00;98569.66;10451706;28;20227;-66
2024/01/19 16:09:45;;;;;;;30.10;22.30;;;-0.40;99.90;;;0.13;100.00;98574.16;10447630;28;20235;-65
2024/01/19 16:14:52;;;;;;;27.83;20.80;;;-0.40;99.90;;;0.11;100.00;98589.06;10480173;28;20739;-66
2024/01/19 16:19:55;;;;;;;29.70;21.70;;;-0.40;99.90;;;0.05;100.00;98600.97;10470931;28;20230;-66
2024/01/19 16:25:00;;;;;;;30.23;22.57;;;-0.60;99.90;;;0.10;100.00;98606.50;10445382;28;20313;-66
2024/01/19 16:30:05;;;;;;;26.90;20.23;;;-0.50;99.90;;;0.10;100.00;98609.00;10452129;28;20221;-66
2024/01/19 16:35:09;;;;;;;25.87;20.13;;;-0.60;99.90;;;0.14;100.00;98613.63;10436785;28;20315;-66
2024/01/19 16:40:15;;;;;;;27.40;22.23;;;-0.60;99.90;;;0.10;100.00;98624.97;10450421;28;20225;-66
2024/01/19 16:45:19;;;;;;;31.27;24.83;;;-0.70;99.90;;;0.05;100.00;98630.22;10435945;28;20234;-66
2024/01/19 16:50:22;;;;;;;31.73;26.07;;;-0.80;99.90;;;-0.03;100.00;98637.84;10473105;28;20240;-66
2024/01/19 16:55:26;;;;;;;29.67;22.90;;;-0.90;99.90;;;-0.13;100.00;98642.56;10472102;28;20617;-66
2024/01/19 17:00:30;;;;;;;30.47;24.73;;;-1.00;99.90;;;-0.14;100.00;98653.34;10428431;28;20229;-66
2024/01/19 17:05:34;;;;;;;30.97;25.00;;;-1.00;99.90;;;-0.24;100.00;98661.44;10415387;28;20876;-66
2024/01/19 17:10:38;;;;;;;33.47;24.57;;;-1.00;99.90;;;-0.31;100.00;98673.19;10420563;28;20933;-66
2024/01/19 17:15:41;;;;;;;35.20;25.37;;;-1.10;99.90;;;-0.38;100.00;98673.19;10421003;28;20315;-66
2024/01/19 17:20:45;;;;;;;26.77;21.00;;;-1.20;99.90;;;-0.41;100.00;98680.41;10426658;28;20224;-66
2024/01/19 17:25:49;;;;;;;29.40;21.47;;;-1.20;99.90;;;-0.49;100.00;98682.97;10459397;28;20230;-66
2024/01/19 17:30:53;;;;;;;30.07;23.23;;;-1.20;99.90;;;-0.57;100.00;98700.34;10450648;28;20229;-66
2024/01/19 17:35:56;;;;;;;27.40;22.13;;;-1.30;99.90;;;-0.74;100.00;98703.50;10468400;28;20227;-66
2024/01/19 17:41:01;;;;;;;28.93;20.90;;;-1.50;99.90;;;-0.79;100.00;98704.59;10452307;28;20232;-66
2024/01/19 17:46:09;;;;;;;42.50;30.00;;;-1.50;99.90;;;-0.91;100.00;98715.00;10445211;28;20233;-66
2024/01/19 17:51:12;;;;;;;38.60;27.73;;;-1.60;99.90;;;-1.00;100.00;98724.00;10443702;28;20283;-66
2024/01/19 17:56:17;;;;;;;34.33;26.13;;;-1.70;99.90;;;-1.12;100.00;98725.06;10446870;28;20223;-65
2024/01/19 18:01:20;;;;;;;36.60;27.03;;;-1.80;99.90;;;-1.13;100.00;98721.66;10422247;28;20327;-66
2024/01/19 18:06:23;;;;;;;39.57;27.40;;;-1.90;99.90;;;-1.21;100.00;98729.03;10421033;28;20236;-65
2024/01/19 18:11:30;;;;;;;46.20;33.53;;;-1.90;99.90;;;-1.23;100.00;98730.44;10456814;28;20276;-66
2024/01/19 18:16:33;;;;;;;73.47;45.00;;;-1.90;99.90;;;-1.38;100.00;98748.00;10442153;28;20228;-65
2024/01/19 18:21:37;;;;;;;88.43;58.47;;;-2.00;99.90;;;-1.40;100.00;98749.47;10436268;28;20364;-66
2024/01/19 18:26:41;;;;;;;49.93;34.73;;;-2.10;99.90;;;-1.64;100.00;98762.50;10441314;28;20705;-66
2024/01/19 18:31:48;;;;;;;58.30;38.33;;;-2.20;99.90;;;-1.79;100.00;98770.72;10412390;28;20325;-66
2024/01/19 18:36:52;;;;;;;43.57;33.43;;;-2.40;99.90;;;-1.72;100.00;98777.34;10419778;28;20249;-65
2024/01/19 18:41:56;;;;;;;43.17;31.77;;;-2.40;99.90;;;-1.83;100.00;98796.13;10463541;28;20252;-65
2024/01/19 18:46:59;;;;;;;39.23;29.40;;;-2.40;99.90;;;-1.80;100.00;98791.50;10460198;28;20360;-65
2024/01/19 18:52:02;;;;;;;45.60;31.10;;;-2.50;99.90;;;-2.01;100.00;98792.31;10424591;28;20600;-67
2024/01/19 18:57:07;;;;;;;42.70;31.73;;;-2.60;99.90;;;-2.00;100.00;98794.13;10430565;28;20309;-65
2024/01/19 19:02:11;;;;;;;42.43;30.37;;;-2.60;99.90;;;-2.06;100.00;98800.88;10418775;28;20257;-65
2024/01/19 19:07:14;;;;;;;45.07;33.20;;;-2.70;99.90;;;-2.21;100.00;98816.56;10414228;28;20234;-65
2024/01/19 19:12:19;;;;;;;46.53;30.83;;;-2.80;99.90;;;-2.19;100.00;98825.16;10422427;28;20225;-65
2024/01/19 19:17:22;;;;;;;41.93;29.40;;;-2.80;99.90;;;-2.23;100.00;98825.47;10457928;28;20311;-65
2024/01/19 19:22:25;;;;;;;40.33;29.40;;;-2.80;99.90;;;-2.19;100.00;98825.16;10460132;28;20233;-65
2024/01/19 19:27:30;;;;;;;41.30;30.30;;;-2.80;99.90;;;-2.15;100.00;98828.19;10452523;28;20696;-65
2024/01/19 19:32:33;;;;;;;38.57;28.33;;;-2.70;99.90;;;-2.11;100.00;98837.00;10448574;28;20227;-65
2024/01/19 19:37:36;;;;;;;39.27;27.40;;;-2.70;99.90;;;-2.22;100.00;98832.31;10431274;28;20235;-65
2024/01/19 19:42:41;;;;;;;38.13;27.23;;;-2.70;99.90;;;-2.16;100.00;98836.44;10450578;28;20315;-65
2024/01/19 19:47:45;;;;;;;35.67;26.07;;;-2.70;99.90;;;-2.16;100.00;98836.44;10451672;28;20224;-65
2024/01/19 19:52:48;;;;;;;34.30;25.60;;;-2.70;99.90;;;-2.23;100.00;98831.41;10439965;28;20227;-65
2024/01/19 19:57:52;;;;;;;37.67;28.27;;;-2.80;99.90;;;-2.24;100.00;98841.22;10420016;28;20229;-65
2024/01/19 20:02:56;;;;;;;37.97;25.27;;;-2.80;99.90;;;-2.18;100.00;98851.97;10444494;28;20243;-65
2024/01/19 20:07:59;;;;;;;46.30;33.40;;;-2.70;99.90;;;-2.23;100.00;98848.94;10440423;28;20235;-65
2024/01/19 20:13:04;;;;;;;48.57;35.10;;;-2.70;99.90;;;-2.19;100.00;98857.72;10426371;28;20312;-66
2024/01/19 20:18:07;;;;;;;57.73;42.03;;;-2.70;99.90;;;-2.11;100.00;98869.56;10449620;28;20227;-66
2024/01/19 20:23:12;;;;;;;50.43;33.73;;;-2.60;99.90;;;-2.17;100.00;98879.72;10465499;28;20239;-64
2024/01/19 20:28:16;;;;;;;37.50;26.50;;;-2.70;99.90;;;-2.11;100.00;98884.59;10444343;28;20299;-65
2024/01/19 20:33:20;;;;;;;49.07;31.03;;;-2.60;99.90;;;-2.02;100.00;98890.69;10438080;28;20223;-65
2024/01/19 20:38:23;;;;;;;38.50;26.53;;;-2.50;99.90;;;-1.83;100.00;98896.34;10452702;28;20324;-64
2024/01/19 20:43:28;;;;;;;32.33;23.07;;;-2.40;99.90;;;-1.69;100.00;98890.47;10454168;28;20224;-65